Bei Facebook empfehlenBei Twitter postenGoogle plusPinterest

Das Wetter im Erzgebirge am 24.02.2015

Wetter und Klima am 24.02.2015 Holzhau im Erzgebirge (630m ü.NN)
Letzte gemessene Temperatur und Uhrzeit der Messung23:45:00 Uhr-2.70 °C
Temperatur (Maximum / Höchstwert) und Uhrzeit der Messung12:45:00 Uhr8.30 °C
Temperatur (Minimum / Tiefstwert) und Uhrzeit der Messung23:45:00-2.70 °C
Errechneter Absolutwert der Temperaturschwankungen zwischen Tmin und Tmax des Tages11.00 K
Errechnete Tagesmitteltemperatur1.74167 °C
Gesamt - Niederschlag des Tages (in flüssiger Form)0.52 Liter / m²
Luftdruck (Maximum / Höchstwert) und Zeitpunkt der Messung22:45:00 Uhr1012.20 hPa
Luftdruck (Minimum / Tiefstwert) und Zeitpunkt der Messung00:15:00 Uhr998.80 hPa
Errechneter Absolutwert der Luftdruckschwankungen des Tages13.40 hPa
Höchste gemessene Windgeschwindigkeit und Uhrzeit der Messung17:30:00 Uhr7.20 km/h
Errechnete Windhäufigkeit in Relation zu den Messwerten des Tages4.16667 %
Niedrigste Windkühle (Windchill) und Zeitpunkt der Messung23:45:00 Uhr-2.70 °C
Taupunkt (Maximum / Höchstwert) und Uhrzeit der Messung10:30:00 Uhr3.00 °C
Taupunkt (Minimum / Tiefstwert) und Uhrzeit der Messung23:45:00-4.80 °C
Anzahl der automatisch eingelesenen Messwerte 96

Detaillierte Wetter- und Klima- Messwerte für den 24.02.2015 in Holzhau im Erzgebirge (630m ü.NN)
ZeitTemperaturLuftdruckRel. LuftfeuchteWindWindrichtungWindchillTaupunktNiederschlag l/m²
23:45:00-2.70 °C1011.90 hPa87.00 %-4.80 °C0.52
23:30:00-2.40 °C1011.90 hPa87.00 %-4.50 °C0.52
23:15:00-2.10 °C1011.90 hPa87.00 %-4.20 °C0.52
23:00:00-2.10 °C1012.00 hPa87.00 %-4.20 °C0.52
22:45:00-2.10 °C1012.20 hPa87.00 %-4.20 °C0.52
22:30:00-2.10 °C1011.90 hPa86.00 %-4.40 °C0.52
22:15:00-1.90 °C1011.80 hPa86.00 %-4.20 °C0.52
22:00:00-1.90 °C1011.70 hPa85.00 %-4.30 °C0.52
21:45:00-1.90 °C1011.50 hPa85.00 %-4.30 °C0.52
21:30:00-1.70 °C1011.30 hPa84.00 %-4.30 °C0.52
21:15:00-1.60 °C1011.20 hPa83.00 %-4.40 °C0.52
21:00:00-1.40 °C1011.00 hPa83.00 %-4.20 °C0.52
20:45:00-1.20 °C1010.90 hPa82.00 %-4.20 °C0.52
20:30:00-1.20 °C1010.60 hPa81.00 %-4.40 °C0.52
20:15:00-1.10 °C1010.40 hPa80.00 %-4.50 °C0.52
20:00:00-0.80 °C1010.10 hPa79.00 %-4.40 °C0.52
19:45:00-0.50 °C1010.00 hPa78.00 %-4.30 °C0.52
19:30:00-0.10 °C1010.10 hPa77.00 %-4.10 °C0.52
19:15:000.20 °C1009.80 hPa77.00 %-3.30 °C0.52
19:00:000.30 °C1009.60 hPa77.00 %-3.20 °C0.52
18:45:000.60 °C1009.40 hPa76.00 %-3.10 °C0.52
18:30:000.80 °C1009.40 hPa74.00 %-3.30 °C0.52
18:15:001.20 °C1009.10 hPa73.00 %-3.10 °C0.52
18:00:001.60 °C1008.60 hPa72.00 %-2.90 °C0.52
17:45:001.90 °C1008.50 hPa72.00 %-2.60 °C0.52
17:30:002.20 °C1008.20 hPa71.00 %7.20 km/hSSW0.10 °C-2.50 °C0.52
17:15:002.50 °C1007.80 hPa70.00 %-2.40 °C0.52
17:00:002.90 °C1007.80 hPa69.00 %-2.20 °C0.52
16:45:003.30 °C1007.70 hPa68.00 %-2.00 °C0.52
16:30:003.80 °C1007.50 hPa66.00 %-2.00 °C0.52
16:15:004.10 °C1007.40 hPa65.00 %-1.90 °C0.52
16:00:004.60 °C1007.20 hPa64.00 %-1.60 °C0.52
15:45:005.20 °C1006.90 hPa62.00 %-1.50 °C0.52
15:30:005.80 °C1006.90 hPa60.00 %-1.30 °C0.52
15:15:006.20 °C1006.90 hPa59.00 %-1.20 °C0.52
15:00:006.60 °C1006.80 hPa59.00 %-0.80 °C 
14:45:006.90 °C1006.40 hPa58.00 %-0.80 °C 
14:30:007.30 °C1006.40 hPa59.00 %-0.20 °C 
14:15:007.90 °C1006.40 hPa57.00 %-0.10 °C 
14:00:008.10 °C1006.40 hPa58.00 %0.30 °C 
13:45:007.80 °C1006.20 hPa58.00 %0.10 °C 
13:30:007.90 °C1006.20 hPa56.00 %-0.30 °C 
13:15:008.10 °C1006.10 hPa56.00 %-0.10 °C 
13:00:008.10 °C1005.70 hPa57.00 %0.10 °C 
12:45:008.30 °C1005.60 hPa57.00 %0.30 °C 
12:30:008.10 °C1005.60 hPa59.00 %3.24 km/hNNW8.10 °C0.60 °C 
12:15:007.80 °C1005.40 hPa60.00 %0.50 °C 
12:00:007.80 °C1005.10 hPa61.00 %0.80 °C 
11:45:008.10 °C1004.90 hPa64.00 %1.70 °C 
11:30:008.10 °C1004.70 hPa66.00 %2.10 °C 
11:15:007.60 °C1004.50 hPa69.00 %2.30 °C 
11:00:006.90 °C1004.20 hPa70.00 %1.80 °C 
10:45:006.80 °C1004.00 hPa76.00 %2.90 °C 
10:30:005.80 °C1004.20 hPa82.00 %3.00 °C 
10:15:004.90 °C1003.90 hPa86.00 %2.80 °C 
10:00:003.10 °C1003.60 hPa92.00 %1.90 °C 
09:45:001.90 °C1003.30 hPa93.00 %0.90 °C 
09:30:001.10 °C1003.30 hPa93.00 %0.10 °C 
09:15:00-0.20 °C1003.00 hPa92.00 %-1.50 °C 
09:00:00-0.60 °C1002.70 hPa92.00 %-1.90 °C 
08:45:00-0.80 °C1002.60 hPa93.00 %-1.90 °C 
08:30:00-1.10 °C1002.20 hPa92.00 %-2.40 °C 
08:15:00-1.20 °C1002.20 hPa92.00 %-2.50 °C 
08:00:00-1.20 °C1001.90 hPa92.00 %-2.50 °C 
07:45:00-1.10 °C1001.80 hPa92.00 %-2.40 °C 
07:30:00-1.10 °C1001.30 hPa92.00 %-2.40 °C 
07:15:00-1.10 °C1001.20 hPa92.00 %-2.40 °C 
07:00:00-1.10 °C1001.10 hPa92.00 %-2.40 °C 
06:45:00-1.10 °C1000.90 hPa92.00 %-2.40 °C 
06:30:00-0.70 °C1000.80 hPa92.00 %-2.00 °C 
06:15:00-0.50 °C1000.80 hPa92.00 %-1.80 °C 
06:00:00-0.60 °C1000.70 hPa92.00 %-1.90 °C 
05:45:00-0.80 °C1000.10 hPa92.00 %-2.10 °C 
05:30:00-0.80 °C999.80 hPa92.00 %-2.10 °C 
05:15:00-0.90 °C999.90 hPa92.00 %-2.20 °C 
05:00:00-0.80 °C999.70 hPa92.00 %-2.10 °C 
04:45:00-0.80 °C999.60 hPa92.00 %-2.10 °C 
04:30:00-0.70 °C999.50 hPa91.00 %-2.10 °C 
04:15:00-0.40 °C999.30 hPa91.00 %-1.80 °C 
04:00:00-0.40 °C999.10 hPa91.00 %-1.80 °C 
03:45:00-0.40 °C999.20 hPa91.00 %-1.80 °C 
03:30:00-0.20 °C998.90 hPa90.00 %-1.80 °C 
03:15:00-0.10 °C998.90 hPa90.00 %-1.70 °C 
03:00:000.30 °C999.00 hPa90.00 %-1.10 °C 
02:45:000.80 °C999.20 hPa90.00 %-0.60 °C 
02:30:000.90 °C999.30 hPa91.00 %-0.40 °C 
02:15:000.70 °C999.30 hPa91.00 %-0.60 °C 
02:00:000.70 °C999.20 hPa90.00 %-0.70 °C 
01:45:000.90 °C999.20 hPa90.00 %-0.50 °C 
01:30:001.10 °C998.90 hPa90.00 %-0.40 °C 
01:15:001.20 °C999.10 hPa90.00 %-0.30 °C 
01:00:001.20 °C999.10 hPa90.00 %3.96 km/hSW1.20 °C-0.30 °C 
00:45:001.10 °C999.10 hPa90.00 %-0.40 °C 
00:30:001.00 °C999.20 hPa90.00 %-0.50 °C 
00:15:001.20 °C998.80 hPa90.00 %-0.30 °C 
00:00:001.40 °C999.00 hPa90.00 %5.40 km/hWNW-0.20 °C-0.10 °C 

Permanenter Link zu dieser Seite: Wetter im Erzgebirge am 24.02.2015
Performance-Info: Die Erstellung der Seite / Statistik(en) / Tabelle(n) erforderte 5 Datenbankserver-Abfrage(n) und dauerte 122 Millisekunden. (Dieser Messwert ist von der Gesamt-Auslastung des Servers abhängig.)
Erzgebirge - Wetter | Erzgebirge - Wetter (Mobilgeräte) | Komplette Klimadatenbank